Change Date:Time:

Metar of : 7/27/2017 0000UTC
Metar
OPDBN 270000Z 31002KT // 27/M01 QNH 1004 RH16%
OPLRK 270000Z 13004KT 6000 SCT040 SCT100 23/21 Q.1001 RH91%
OPSKD 27/0000Z 27002KT 6000 BKN 40,100 28/24 Q//// RH81%
^TAF OPLA 2703/2712 12008KT 4000 FU SCT040 SCT100 TX36/2710Z TEMPO 2706/2710 32015G40KT 1500 TSRA FEW030CB SCT040 BKN100
2.OPLR SIGMET 1 VALID 270100/270500 OPLA -
3.OPLR LAHORE FIR ISOL TS OBS BETWEEN 30N TO 35N AND 70E TO 75E MOV E INTSF
OPAP BW 00000KT 4000 FU NSC 30/26 Q0998 78%
OPAS 18002KT 6000 NSC 17/08 56%
OPBJ 00000KT 6000 NSC 28/11 34%
OPBK 00000KT 8000 RA BKN030 23/21 91%
OPBKN 270000Z 00000KT 0500 SCT100 25/20 RH77%
OPBKR 00000KT 5000 NSC 31/27 82%
OPBL 270000Z 00000KT 6000 FEW100 29/25 RH81%
OPBR 00000KT 5000 NSC 30/26 78%
OPBW 00000KT 2500 FU NSC 31/27 79%
OPCK 00000KT 9999 SCT 040 25/24 92%
OPCL 13002KT 9000 NSC 31/11 30%
OPDG 00000KT 6000 FEW100 30/25 Q0995 75%
OPDIK 00000KT 9999 SCT040 SCT100 27/24 Q0999 84%
OPDIR 00000kt 6000 sct030 sct100 24/18 69%
OPDU 270000Z 05002KT 5000 HZ BKN -035 SCT-100 27/22 RH73%
OPFA 05004KT 4000 FU FEW100 30/28 Q1001 NOSIG RH 89%
OPGD 270000Z 00000KT 2000 BR SCT020 26/24 Q.999 RH88%
OPGP 00000KT 7000 RA SCT040 BKN100 24/21 84%
OPGPS 13004KT 8000 SKC 19/09 54%
OPGT 00000KT 4000 NSC 19/16 Q1005 82%
OPGW 00000KT 9999 SCT120 29/28 92%
OPJBD 00000KT 4000 FU FEW120 29/26 89%
OPJG 00000KT 5000 FU NSC 30/28 Q0999 89%
OPJI 270000Z 09006KT 2000 FU BKN 025 28/25 Q1000 RH85%
OPJM 09004KT 1000 TSRA FEW030CB SCT040 OVC110 27/23 81%
OPKAD 00000KT 6000 NSC 30/26 78%
OPKC 270000Z 27008KT 7000 BKN020 29/26 Q1001 RH82%
OPKD 270000Z 21002KT 6000 BKN035 FEW100 29/25 Q0998 RH78% N0SIG
OPKE 270000Z 6000 SCT035 SCT100 27/26 Q0997 RH92%
OPKL 05004KT 8000 TSDZ FEW030CB SCT040 BKN100 25/22 84%
OPKP 00000KT 4000 FU SCT120 30/27 85%
OPKRL 00000KT 4000 FU FEW100 30/23 68%
OPKS 00000KT 4000 FU SCT100 28/24 77%
OPLA 10005KT 4000 FU FEW100 29/25 Q1002 A29.59 NOSIG RH 78%
OPMA 13004KT 3000 TSRA FEW030CB SCT040 BKN100 26/25 Q1004 92%
OPMB 09002KT 9999 SCT040 OVC100 28/25 Q1000 85%
OPME 00000KT 0050 OVC000 ST 17/15 91%
OPMF 13002KT 8000 TSRA FEW 030CB BKN 033 OVC 100 23/21 87%
OPMIT 270000Z 27006KT 6000 SCT035 SCT110 27/25 Q0998 RH88%
OPMJB 00000KT 6000 SCT 040 BKN 100 14/12 90%
OPMPK 270000Z 18004KT V6000 SCT30 SCT100 28/25Q 998 RH85%
OPMT 00000KT 5000 FU NSC 33/26 Q0998 NOSIG RH70%
OPNH 270000Z 13506KT 4000 HZ FEW035 SCT100 27/22 Q0996 RH77% NOSIG
OPNK 270000Z 31504KT 8000 SKC 30/M02 Q0994 RH13%
OPNPT 00000KT 000 SKC 29/27 92%
OPOK 00000KT 6000 NSC 30/24 Q0999 75%
OPPDN 270000Z 13002kt 5000 Sct 040 sct100 28/24 Q999 RH77%
OPPG 2700000z 00000kt 6km SKC 25/15 Q1009 Rh52%
OPPI 270000Z 00000KT 3000 SCT030 T27/26 Q999 RH92%
OPPS 05012KT 4000 HZ FEW030TCU SCT040 BKN080 27/24 Q1001 RH 77%
OPQT 13016KT 4000 HZ SCT050 SCT100 25/15 Q1012 RH.54
OPRK 23004KT 4000 FU FEW040 SCT100 29/24 Q0999 78%
OPRN 05012KT 4000 TS FEW030CB SCT035 BKN110 27/24 1004.8 85%
OPSD 00000KT 6000 FEW040 17/11 Q1012 72%
OPSG 00000KT 6000 FEW040 SCT100 29/28 92%
OPSK 270000Z 23004KT 4000 HZ FEW040 SCT100 28/23 Q0998 NOSIG
OPSKT 31006KT 6000 SCT035 BKN100 26/23 84%
OPSM 270000Z 00000KT 4000HZ SCT035 SCT100 24/17 RH63%
OPSS 00000KT 6000 FEW040 SCT100 25/22 84%
OPST 05004KT 4000 FU SCT040 SCT100 26/23 Q1002 REVCTS TEMPO 36015G30KT 2000 -TSRA FEW030CB RH84%
OPSW 00000KT 6000 NSC 30/26 Q0999 85%
OPTJM 270000Z 23002Kt 6000 FEW 035 FEW100 27/25 Q1002 RH85%
OPTMG 00000KT 5000 SCT030 SCT100 28/25 82%
OPTS 00000KT 3000 FU NSC 31/26 79%
OPTU 270000Z 00000KT 5000M SKC 28/22 Q998 RH71%
OPUG 05010KT 6000 FU SCT040 BKN100 25/23 92%
OPZB 270000z 00000kt 6000 few040 25/20 QNH1010 Rh73%
QT1.TAF OPQT 270000Z 2703/2712 32015G25KT 4000 HZ FEW030TCU SCT050 SCT100
TAF OPPS 270000Z 2703/2712 05015KT 4000 HZ SCT040 BKN100 TEMPO 2709/2712 FEW030TCU SCT040 BKN100
WX WARNING FOR GUSTY WIND OVER OPQT & ALL TRG AREAS UPTO 27-02300Z
CodeW.DirSpeedVisibilityCloud ConditionTempPressureHumidityStation
OPAP00000KT4000mHaze30oC998hp78%B-PUR A/P
OPAS18002KT6000mClear17oC56%ASTORE
OPBJ00000KT6000mClear28oC34%BUNJI
OPBK00000KT8000mThunder Rain23oC91%Balakot
OPBKR00000KT5000mClear31oC82%Bhakkar
OPBR00000KT5000mClear30oC78%Bahawalnagar
OPBW00000KT2500mHaze31oC79%Bahawalpur
OPCK00000KT9999mPartly Cloudy25oC92%Chakwal
OPCL13002KT9000mClear31oC30%Chilas
OPDG00000KT6000mPartly Cloudy30oC995hp75%D-G-KHAN
OPFA05004KT4000mPartly Cloudy30oC1001hp89%Faisalabad
OPGD00000KT2000mMist26oC999hp88%Gawadar
OPGP00000KT7000mThunder Rain24oC84%GARHI DOPATTA
OPGT00000KT4000mClear19oC1005hp82%Gilgit
OPGW00000KT9999mPartly Cloudy29oC92%Gujranwala
OPJBD00000KT4000mPartly Cloudy29oC89%Joharabad
OPJG00000KT5000mHaze30oC999hp89%Jhang
OPJI09006KT2000mCloudy28oC1000hp85%Jiwani
OPJM09004KT1000mThunder Rain27oC81%Jhelum
OPKAD00000KT6000mClear30oC78%KOT ADDU
OPKC27008KT7000mCloudy29oC1001hp82%KARACHI A/P
OPKD21002KT6000mPartly Cloudy29oC998hp78%Hyderabad
OPKE6000mPartly Cloudy27oC997hp92%Chhor
OPKL05004KT8000mThunder Showers25oC84%Kotli
OPKP00000KT4000mPartly Cloudy30oC85%Khanpur
OPKRL00000KT4000mPartly Cloudy30oC68%KAROR (LAYYAH)
OPKS00000KT4000mPartly Cloudy28oC77%Kasur
OPLA10005KT4000mPartly Cloudy29oC1002hp78%LAHORE A/P
OPMA13004KT3000mThunder Rain26oC1004hp92%Mangla
OPMB09002KT9999mPartly Cloudy28oC1000hp85%MANDI BAHUDDIN
OPME00000KT0050mCloudy17oC91%Murree
OPMF13002KT8000mThunder Rain23oC87%MUZAFFARABAD
OPMJB00000KT6000mPartly Cloudy14oC90%MALAM JABBA
OPMT00000KT5000mHaze33oC998hp70%Multan
OPNH13506KT4000mPartly Cloudy27oC996hp77%Sh Benazirabad
OPNPT00000KTClear29oC92%NOOR PUR THAL
OPOK00000KT6000mClear30oC999hp75%Okara
OPPG00000KT6000mClear25oC1009hp52%Panjgur
OPPI00000KT3000mPartly Cloudy27oC999hp92%Pasni
OPPS05012KT4000mPartly Cloudy27oC1001hp77%Peshawar
OPQT13016KT4000mPartly Cloudy25oC1012hpQuetta
OPRK23004KT4000mPartly Cloudy29oC999hp78%R-Y-KHAN
OPRN05012KT4000mPartly Cloudy27oC85%CHAKLALA- RAWALPINDI
OPSD00000KT6000mPartly Cloudy17oC1012hp72%Skardu
OPSK23004KT4000mPartly Cloudy28oC998hpSukkur
OPSS00000KT6000mPartly Cloudy25oC84%SAIDU SHARIF
OPST05004KT4000mPartly Cloudy26oC1002hp84%SIAL A/P SIALKOT
OPSW00000KT6000mClear30oC999hp85%Sahiwal
OPTMG00000KT5000mPartly Cloudy28oC82%Tim Dir
OPTS00000KT3000mHaze31oC79%T.T. SINGH
OPTU00000KT5000mClear28oC998hp71%Turbat
OPUG05010KT6000mPartly Cloudy25oC92%Gujrat